Hlavní strana
METAR-TAF:

METAR-TAF

Letiště :

Nouméa / La Tontouta, Nová Kaledonie

zeměpisná šířka: 22-01S, zeměpisná délka: 166-13E, výška: 16 m

Aktuální stav počasí

Zpráva byla vytvořena před 29 minutami, v 12:30 UTC
Jihovýchodní vítr 5 kt
Teplota 18°C
Vlhkost vzduchu 73%
Tlak 1017 hPa
Viditelnost 10 km a více
Žádná oblačnost pod 1500 m, nevyskytují se cumulonimby.

METAR: NWWW 251230Z AUTO 14005KT CAVOK 18/13 Q1017 NOSIG

Čas: 23:59 (12:59 UTC)

Předpověď počasí

Zpráva byla vytvořena před 1 hodinou a 59 minutami, v 11:00 UTC
Předpověď platná od 25 v 12 UTC do 26 v 12 UTC
vítr z různých směrů 2 kt
Viditelnost 10 km a více
Polojasno ve výšce 6000 ft
Změna
od 25 v 22 UTC do 25 v 24 UTC
Jihovýchodní vítr 16 kt
Změna
od 26 v 08 UTC do 26 v 10 UTC
vítr z různých směrů 2 kt

TAF: NWWW 251100Z 2512/2612 VRB02KT 9999 SCT060 BECMG 2522/2524 14016KT BECMG 2608/2610 VRB02KT

Stav a předpovědi počasí z více než 4 000 letišť (zprávy METAR a TAF).

Červené a žluté tečky na mapě představují dostupné meteorologické stanice.

Když kurzor umístíte na tečku, zobrazí se název stanice.

Pak kliknutím zobrazíte stav a předpověď počasí.

Chcete-li změnit mapu, kliknutím na zelené tlačítko se znaménkem +mapu přiblížíte, kliknutím na zelené tlačítko se znaménkem – mapu oddálíte a kliknutím na zelené šipky přejdete na sousední mapy.


METAR-TAF: